Elkton, OR (97436)

10:49 PM PST on December 26, 2014 (GMT -0800)
1/2 Mile East of Elkton | Change Station
CLOSE
Current Station
Personal Weather Station
Location: Elkton, OR
Elevation: 184 ft
Nearby Weather Stations

Elev 184 ft 43.64 °N, 123.58 °W | Updated 1 second ago

Mostly Cloudy
Mostly Cloudy
42.8 °F
Feels Like 43 °F
N
0.0
Wind Variable Wind from SE
Gusts 0.0 mph

Today
High -- | Low -- °F
--% Chance of Precip.
Yesterday
High -- | Low -- °F
Precip. -- in
7:46 AM 4:43 PM
Waxing Crescent, 33% visible
Pressure 30.38 in
Visibility 4.0 miles
Clouds Mostly Cloudy 200 ft
Overcast 800 ft
Windchill 43 °F
Dew Point 42 °F
Humidity 95%
Rainfall 0.00 in
Snow Depth Not available.
UV 0.0 out of 12
Pollen 1.60 out of 12
Air Quality Not available.
Flu Activity Not available.
SPECI KRBG 270603Z AUTO 00000KT 4SM BR BKN002 OVC008 04/03 A3038 RMK AO2 T00440033

More Conditions Fewer Conditions

Pressure 30.38 in
Visibility 4.0 miles
Clouds Mostly Cloudy 200 ft
Overcast 800 ft
Windchill 43 °F
Dew Point 42 °F
Humidity 95%
Rainfall 0.00 in
Snow Depth Not available.
UV 0.0 out of 12
Pollen 1.60 out of 12
Air Quality Not available.
Flu Activity Not available.
SPECI KRBG 270603Z AUTO 00000KT 4SM BR BKN002 OVC008 04/03 A3038 RMK AO2 T00440033

More Conditions Fewer Conditions

10-Day Weather Forecast

Almanac

Astronomy

Dec. 26, 2014 Rise Set
Actual Time
Civil Twilight
Nautical Twilight
Astronomical Twilight
Moon
Length of Visible Light
Length of Day
Tomorrow will be .
, % of the Moon is Illuminated

Today's Extremes

State Highs State Lows

Community

WunderPhotos

Upload Photos

1,780,863 photos uploaded!

WunderBlogs® & News

Nearby

Air Quality

  Air Quality AQ Index Pollutant
Not available.

Snow Depth

Station Depth Elevation

Earthquake Activity

City Distance Mag. Time & Date
Minimum magnitude displayed is 2.5.

Coastal Water Temperatures

Place Temperature

Nearby Weather Stations